sensor_id;sensor_type;location;lat;lon;timestamp;temperature;humidity
12481;DHT22;6305;48.398;11.762;2023-07-29T00:01:59;16.50;99.90
12481;DHT22;6305;48.398;11.762;2023-07-29T00:04:25;16.40;99.90
12481;DHT22;6305;48.398;11.762;2023-07-29T00:06:52;16.40;99.90
12481;DHT22;6305;48.398;11.762;2023-07-29T00:09:20;16.30;99.90
12481;DHT22;6305;48.398;11.762;2023-07-29T00:11:47;16.30;99.90
12481;DHT22;6305;48.398;11.762;2023-07-29T00:14:14;16.30;99.90
12481;DHT22;6305;48.398;11.762;2023-07-29T00:16:41;16.30;99.90
12481;DHT22;6305;48.398;11.762;2023-07-29T00:19:09;16.30;99.90
12481;DHT22;6305;48.398;11.762;2023-07-29T00:21:35;16.30;99.90
12481;DHT22;6305;48.398;11.762;2023-07-29T00:24:03;16.30;99.90
12481;DHT22;6305;48.398;11.762;2023-07-29T00:26:31;16.20;99.90
12481;DHT22;6305;48.398;11.762;2023-07-29T00:28:58;16.20;99.90
12481;DHT22;6305;48.398;11.762;2023-07-29T00:31:25;16.10;99.90
12481;DHT22;6305;48.398;11.762;2023-07-29T00:33:52;16.10;99.90
12481;DHT22;6305;48.398;11.762;2023-07-29T00:36:20;16.10;99.90
12481;DHT22;6305;48.398;11.762;2023-07-29T00:38:47;16.10;99.90
12481;DHT22;6305;48.398;11.762;2023-07-29T00:41:15;16.10;99.90
12481;DHT22;6305;48.398;11.762;2023-07-29T00:43:43;16.10;99.90
12481;DHT22;6305;48.398;11.762;2023-07-29T00:46:11;16.10;99.90
12481;DHT22;6305;48.398;11.762;2023-07-29T00:48:38;16.00;99.90
12481;DHT22;6305;48.398;11.762;2023-07-29T00:51:05;16.00;99.90
12481;DHT22;6305;48.398;11.762;2023-07-29T00:53:32;16.00;99.90
12481;DHT22;6305;48.398;11.762;2023-07-29T00:56:00;15.90;99.90
12481;DHT22;6305;48.398;11.762;2023-07-29T00:58:27;15.80;99.90
12481;DHT22;6305;48.398;11.762;2023-07-29T01:00:56;15.70;99.90
12481;DHT22;6305;48.398;11.762;2023-07-29T01:03:23;15.60;99.90
12481;DHT22;6305;48.398;11.762;2023-07-29T01:05:57;15.50;99.90
12481;DHT22;6305;48.398;11.762;2023-07-29T01:08:33;15.40;99.90
12481;DHT22;6305;48.398;11.762;2023-07-29T01:11:09;15.30;99.90
12481;DHT22;6305;48.398;11.762;2023-07-29T01:13:44;15.30;99.90
12481;DHT22;6305;48.398;11.762;2023-07-29T01:16:19;15.20;99.90
12481;DHT22;6305;48.398;11.762;2023-07-29T01:18:48;15.20;99.90
12481;DHT22;6305;48.398;11.762;2023-07-29T01:21:17;15.10;99.90
12481;DHT22;6305;48.398;11.762;2023-07-29T01:23:46;15.10;99.90
12481;DHT22;6305;48.398;11.762;2023-07-29T01:26:13;15.00;99.90
12481;DHT22;6305;48.398;11.762;2023-07-29T01:28:40;14.90;99.90
12481;DHT22;6305;48.398;11.762;2023-07-29T01:31:12;14.90;99.90
12481;DHT22;6305;48.398;11.762;2023-07-29T01:33:44;14.80;99.90
12481;DHT22;6305;48.398;11.762;2023-07-29T01:36:20;14.70;99.90
12481;DHT22;6305;48.398;11.762;2023-07-29T01:38:49;14.70;99.90
12481;DHT22;6305;48.398;11.762;2023-07-29T01:41:18;14.60;99.90
12481;DHT22;6305;48.398;11.762;2023-07-29T01:43:46;14.60;99.90
12481;DHT22;6305;48.398;11.762;2023-07-29T01:46:14;14.60;99.90
12481;DHT22;6305;48.398;11.762;2023-07-29T01:48:42;14.60;99.90
12481;DHT22;6305;48.398;11.762;2023-07-29T01:51:11;14.60;99.90
12481;DHT22;6305;48.398;11.762;2023-07-29T01:53:38;14.60;99.90
12481;DHT22;6305;48.398;11.762;2023-07-29T01:56:07;14.70;99.90
12481;DHT22;6305;48.398;11.762;2023-07-29T01:58:36;14.70;99.90
12481;DHT22;6305;48.398;11.762;2023-07-29T02:01:03;14.70;99.90
12481;DHT22;6305;48.398;11.762;2023-07-29T02:03:30;14.70;99.90
12481;DHT22;6305;48.398;11.762;2023-07-29T02:06:00;14.70;99.90
12481;DHT22;6305;48.398;11.762;2023-07-29T02:08:27;14.60;99.90
12481;DHT22;6305;48.398;11.762;2023-07-29T02:10:54;14.50;99.90
12481;DHT22;6305;48.398;11.762;2023-07-29T02:13:22;14.50;99.90
12481;DHT22;6305;48.398;11.762;2023-07-29T02:15:49;14.50;99.90
12481;DHT22;6305;48.398;11.762;2023-07-29T02:18:17;14.40;99.90
12481;DHT22;6305;48.398;11.762;2023-07-29T02:20:44;14.30;99.90
12481;DHT22;6305;48.398;11.762;2023-07-29T02:23:15;14.30;99.90
12481;DHT22;6305;48.398;11.762;2023-07-29T02:25:42;14.20;99.90
12481;DHT22;6305;48.398;11.762;2023-07-29T02:28:09;14.10;99.90
12481;DHT22;6305;48.398;11.762;2023-07-29T02:30:41;14.10;99.90
12481;DHT22;6305;48.398;11.762;2023-07-29T02:33:10;14.10;99.90
12481;DHT22;6305;48.398;11.762;2023-07-29T02:35:37;14.20;99.90
12481;DHT22;6305;48.398;11.762;2023-07-29T02:38:04;14.20;99.90
12481;DHT22;6305;48.398;11.762;2023-07-29T02:40:32;14.20;99.90
12481;DHT22;6305;48.398;11.762;2023-07-29T02:42:59;14.20;99.90
12481;DHT22;6305;48.398;11.762;2023-07-29T02:45:26;14.20;99.90
12481;DHT22;6305;48.398;11.762;2023-07-29T02:47:54;14.10;99.90
12481;DHT22;6305;48.398;11.762;2023-07-29T02:50:21;14.10;99.90
12481;DHT22;6305;48.398;11.762;2023-07-29T02:52:48;14.20;99.90
12481;DHT22;6305;48.398;11.762;2023-07-29T02:55:15;14.20;99.90
12481;DHT22;6305;48.398;11.762;2023-07-29T02:57:43;14.20;99.90
12481;DHT22;6305;48.398;11.762;2023-07-29T03:00:11;14.10;99.90
12481;DHT22;6305;48.398;11.762;2023-07-29T03:02:39;14.10;99.90
12481;DHT22;6305;48.398;11.762;2023-07-29T03:05:08;14.10;99.90
12481;DHT22;6305;48.398;11.762;2023-07-29T03:07:35;14.10;99.90
12481;DHT22;6305;48.398;11.762;2023-07-29T03:10:03;14.10;99.90
12481;DHT22;6305;48.398;11.762;2023-07-29T03:12:30;14.20;99.90
12481;DHT22;6305;48.398;11.762;2023-07-29T03:14:57;14.20;99.90
12481;DHT22;6305;48.398;11.762;2023-07-29T03:17:25;14.10;99.90
12481;DHT22;6305;48.398;11.762;2023-07-29T03:19:52;14.10;99.90
12481;DHT22;6305;48.398;11.762;2023-07-29T03:22:21;14.00;99.90
12481;DHT22;6305;48.398;11.762;2023-07-29T03:24:48;13.90;99.90
12481;DHT22;6305;48.398;11.762;2023-07-29T03:27:14;13.90;99.90
12481;DHT22;6305;48.398;11.762;2023-07-29T03:29:41;13.90;99.90
12481;DHT22;6305;48.398;11.762;2023-07-29T03:32:08;13.90;99.90
12481;DHT22;6305;48.398;11.762;2023-07-29T03:34:35;13.90;99.90
12481;DHT22;6305;48.398;11.762;2023-07-29T03:37:03;14.00;99.90
12481;DHT22;6305;48.398;11.762;2023-07-29T03:39:31;14.00;99.90
12481;DHT22;6305;48.398;11.762;2023-07-29T03:41:58;13.90;99.90
12481;DHT22;6305;48.398;11.762;2023-07-29T03:44:25;13.90;99.90
12481;DHT22;6305;48.398;11.762;2023-07-29T03:46:52;13.90;99.90
12481;DHT22;6305;48.398;11.762;2023-07-29T03:49:19;13.90;99.90
12481;DHT22;6305;48.398;11.762;2023-07-29T03:51:47;14.00;99.90
12481;DHT22;6305;48.398;11.762;2023-07-29T03:54:14;14.10;99.90
12481;DHT22;6305;48.398;11.762;2023-07-29T03:56:42;14.20;99.90
12481;DHT22;6305;48.398;11.762;2023-07-29T03:59:09;14.40;99.90
12481;DHT22;6305;48.398;11.762;2023-07-29T04:01:37;14.60;99.90
12481;DHT22;6305;48.398;11.762;2023-07-29T04:04:04;14.70;99.90
12481;DHT22;6305;48.398;11.762;2023-07-29T04:06:31;14.80;99.90
12481;DHT22;6305;48.398;11.762;2023-07-29T04:08:58;14.90;99.90
12481;DHT22;6305;48.398;11.762;2023-07-29T04:11:25;15.00;99.90
12481;DHT22;6305;48.398;11.762;2023-07-29T04:13:54;15.10;99.90
12481;DHT22;6305;48.398;11.762;2023-07-29T04:16:21;15.10;99.90
12481;DHT22;6305;48.398;11.762;2023-07-29T04:18:48;15.10;99.90
12481;DHT22;6305;48.398;11.762;2023-07-29T04:21:15;15.20;99.90
12481;DHT22;6305;48.398;11.762;2023-07-29T04:23:42;15.30;99.90
12481;DHT22;6305;48.398;11.762;2023-07-29T04:26:09;15.40;99.90
12481;DHT22;6305;48.398;11.762;2023-07-29T04:28:36;15.40;99.90
12481;DHT22;6305;48.398;11.762;2023-07-29T04:31:05;15.50;99.90
12481;DHT22;6305;48.398;11.762;2023-07-29T04:33:32;15.50;99.90
12481;DHT22;6305;48.398;11.762;2023-07-29T04:35:59;15.40;99.90
12481;DHT22;6305;48.398;11.762;2023-07-29T04:38:31;15.40;99.90
12481;DHT22;6305;48.398;11.762;2023-07-29T04:40:59;15.40;99.90
12481;DHT22;6305;48.398;11.762;2023-07-29T04:43:27;15.30;99.90
12481;DHT22;6305;48.398;11.762;2023-07-29T04:45:54;15.20;99.90
12481;DHT22;6305;48.398;11.762;2023-07-29T04:48:23;15.10;99.90
12481;DHT22;6305;48.398;11.762;2023-07-29T04:50:50;15.10;99.90
12481;DHT22;6305;48.398;11.762;2023-07-29T04:53:17;15.10;99.90
12481;DHT22;6305;48.398;11.762;2023-07-29T04:55:44;15.10;99.90
12481;DHT22;6305;48.398;11.762;2023-07-29T04:58:11;15.00;99.90
12481;DHT22;6305;48.398;11.762;2023-07-29T05:00:38;15.10;99.90
12481;DHT22;6305;48.398;11.762;2023-07-29T05:03:05;15.30;99.90
12481;DHT22;6305;48.398;11.762;2023-07-29T05:05:33;15.60;99.90
12481;DHT22;6305;48.398;11.762;2023-07-29T05:08:01;16.00;99.90
12481;DHT22;6305;48.398;11.762;2023-07-29T05:10:28;16.20;99.90
12481;DHT22;6305;48.398;11.762;2023-07-29T05:12:55;16.40;99.90
12481;DHT22;6305;48.398;11.762;2023-07-29T05:15:22;16.50;99.90
12481;DHT22;6305;48.398;11.762;2023-07-29T05:17:50;16.80;99.90
12481;DHT22;6305;48.398;11.762;2023-07-29T05:20:17;17.10;99.90
12481;DHT22;6305;48.398;11.762;2023-07-29T05:22:46;17.60;99.90
12481;DHT22;6305;48.398;11.762;2023-07-29T05:25:13;17.90;99.90
12481;DHT22;6305;48.398;11.762;2023-07-29T05:27:40;18.20;99.90
12481;DHT22;6305;48.398;11.762;2023-07-29T05:30:08;18.30;99.90
12481;DHT22;6305;48.398;11.762;2023-07-29T05:32:36;18.40;99.90
12481;DHT22;6305;48.398;11.762;2023-07-29T05:35:03;18.40;99.90
12481;DHT22;6305;48.398;11.762;2023-07-29T05:37:31;18.70;99.90
12481;DHT22;6305;48.398;11.762;2023-07-29T05:40:00;18.90;99.90
12481;DHT22;6305;48.398;11.762;2023-07-29T05:42:27;19.40;99.90
12481;DHT22;6305;48.398;11.762;2023-07-29T05:44:54;19.40;99.90
12481;DHT22;6305;48.398;11.762;2023-07-29T05:47:21;19.40;99.90
12481;DHT22;6305;48.398;11.762;2023-07-29T05:49:48;19.70;99.90
12481;DHT22;6305;48.398;11.762;2023-07-29T05:52:15;20.10;99.90
12481;DHT22;6305;48.398;11.762;2023-07-29T05:54:42;20.10;99.90
12481;DHT22;6305;48.398;11.762;2023-07-29T05:57:11;19.90;99.90
12481;DHT22;6305;48.398;11.762;2023-07-29T05:59:38;20.00;99.90
12481;DHT22;6305;48.398;11.762;2023-07-29T06:02:06;20.20;99.90
12481;DHT22;6305;48.398;11.762;2023-07-29T06:04:33;20.30;99.90
12481;DHT22;6305;48.398;11.762;2023-07-29T06:07:00;20.40;99.90
12481;DHT22;6305;48.398;11.762;2023-07-29T06:09:27;20.60;99.90
12481;DHT22;6305;48.398;11.762;2023-07-29T06:11:54;20.70;99.90
12481;DHT22;6305;48.398;11.762;2023-07-29T06:14:22;20.70;99.90
12481;DHT22;6305;48.398;11.762;2023-07-29T06:16:49;20.90;99.90
12481;DHT22;6305;48.398;11.762;2023-07-29T06:19:17;21.00;99.90
12481;DHT22;6305;48.398;11.762;2023-07-29T06:21:44;21.10;99.90
12481;DHT22;6305;48.398;11.762;2023-07-29T06:24:11;21.40;99.90
12481;DHT22;6305;48.398;11.762;2023-07-29T06:26:38;21.60;99.90
12481;DHT22;6305;48.398;11.762;2023-07-29T06:29:05;21.80;99.90
12481;DHT22;6305;48.398;11.762;2023-07-29T06:31:34;21.60;99.90
12481;DHT22;6305;48.398;11.762;2023-07-29T06:34:01;21.20;99.90
12481;DHT22;6305;48.398;11.762;2023-07-29T06:36:28;20.80;99.90
12481;DHT22;6305;48.398;11.762;2023-07-29T06:38:55;20.80;99.90
12481;DHT22;6305;48.398;11.762;2023-07-29T06:41:21;21.10;99.90
12481;DHT22;6305;48.398;11.762;2023-07-29T06:43:49;21.90;99.90
12481;DHT22;6305;48.398;11.762;2023-07-29T06:46:16;23.20;99.90
12481;DHT22;6305;48.398;11.762;2023-07-29T06:48:44;23.80;99.90
12481;DHT22;6305;48.398;11.762;2023-07-29T06:51:11;24.10;99.90
12481;DHT22;6305;48.398;11.762;2023-07-29T06:53:38;24.10;99.90
12481;DHT22;6305;48.398;11.762;2023-07-29T06:56:05;24.50;99.90
12481;DHT22;6305;48.398;11.762;2023-07-29T06:58:32;25.20;99.90
12481;DHT22;6305;48.398;11.762;2023-07-29T07:00:59;25.00;99.90
12481;DHT22;6305;48.398;11.762;2023-07-29T07:03:26;24.40;99.90
12481;DHT22;6305;48.398;11.762;2023-07-29T07:05:55;24.00;99.90
12481;DHT22;6305;48.398;11.762;2023-07-29T07:08:23;23.70;99.90
12481;DHT22;6305;48.398;11.762;2023-07-29T07:10:50;23.20;99.90
12481;DHT22;6305;48.398;11.762;2023-07-29T07:13:17;22.50;99.90
12481;DHT22;6305;48.398;11.762;2023-07-29T07:15:44;21.70;99.90
12481;DHT22;6305;48.398;11.762;2023-07-29T07:18:11;21.00;99.90
12481;DHT22;6305;48.398;11.762;2023-07-29T07:20:39;20.00;99.90
12481;DHT22;6305;48.398;11.762;2023-07-29T07:23:07;19.10;99.90
12481;DHT22;6305;48.398;11.762;2023-07-29T07:25:37;18.50;99.90
12481;DHT22;6305;48.398;11.762;2023-07-29T07:28:04;18.10;99.90
12481;DHT22;6305;48.398;11.762;2023-07-29T07:30:31;17.90;99.90
12481;DHT22;6305;48.398;11.762;2023-07-29T07:32:58;17.80;99.90
12481;DHT22;6305;48.398;11.762;2023-07-29T07:35:25;17.80;99.90
12481;DHT22;6305;48.398;11.762;2023-07-29T07:37:52;17.80;99.90
12481;DHT22;6305;48.398;11.762;2023-07-29T07:40:21;17.90;99.90
12481;DHT22;6305;48.398;11.762;2023-07-29T07:42:48;17.90;99.90
12481;DHT22;6305;48.398;11.762;2023-07-29T07:45:15;17.90;99.90
12481;DHT22;6305;48.398;11.762;2023-07-29T07:47:43;17.90;99.90
12481;DHT22;6305;48.398;11.762;2023-07-29T07:50:11;18.00;99.90
12481;DHT22;6305;48.398;11.762;2023-07-29T07:52:39;18.20;99.90
12481;DHT22;6305;48.398;11.762;2023-07-29T07:55:07;18.40;99.90
12481;DHT22;6305;48.398;11.762;2023-07-29T07:57:36;18.70;99.90
12481;DHT22;6305;48.398;11.762;2023-07-29T08:00:03;18.80;99.90
12481;DHT22;6305;48.398;11.762;2023-07-29T08:02:38;19.00;99.90
12481;DHT22;6305;48.398;11.762;2023-07-29T08:05:06;19.10;99.90
12481;DHT22;6305;48.398;11.762;2023-07-29T08:07:34;19.40;99.90
12481;DHT22;6305;48.398;11.762;2023-07-29T08:10:01;19.60;99.90
12481;DHT22;6305;48.398;11.762;2023-07-29T08:12:28;19.70;99.90
12481;DHT22;6305;48.398;11.762;2023-07-29T08:14:57;19.70;99.90
12481;DHT22;6305;48.398;11.762;2023-07-29T08:17:24;19.70;99.90
12481;DHT22;6305;48.398;11.762;2023-07-29T08:19:51;19.90;99.90
12481;DHT22;6305;48.398;11.762;2023-07-29T08:22:18;20.20;99.90
12481;DHT22;6305;48.398;11.762;2023-07-29T08:24:46;20.40;99.90
12481;DHT22;6305;48.398;11.762;2023-07-29T08:27:13;20.60;99.90
12481;DHT22;6305;48.398;11.762;2023-07-29T08:29:40;20.80;99.90
12481;DHT22;6305;48.398;11.762;2023-07-29T08:32:09;21.10;99.90
12481;DHT22;6305;48.398;11.762;2023-07-29T08:34:36;21.40;99.90
12481;DHT22;6305;48.398;11.762;2023-07-29T08:37:03;21.50;99.90
12481;DHT22;6305;48.398;11.762;2023-07-29T08:39:30;21.70;99.90
12481;DHT22;6305;48.398;11.762;2023-07-29T08:42:01;21.80;99.90
12481;DHT22;6305;48.398;11.762;2023-07-29T08:44:35;21.90;99.90
12481;DHT22;6305;48.398;11.762;2023-07-29T08:47:03;22.00;99.90
12481;DHT22;6305;48.398;11.762;2023-07-29T08:49:32;21.90;99.90
12481;DHT22;6305;48.398;11.762;2023-07-29T08:52:00;22.00;99.90
12481;DHT22;6305;48.398;11.762;2023-07-29T08:54:27;22.00;99.90
12481;DHT22;6305;48.398;11.762;2023-07-29T08:56:55;22.00;99.90
12481;DHT22;6305;48.398;11.762;2023-07-29T08:59:22;22.30;99.90
12481;DHT22;6305;48.398;11.762;2023-07-29T09:01:50;22.70;99.90
12481;DHT22;6305;48.398;11.762;2023-07-29T09:04:21;23.20;99.90
12481;DHT22;6305;48.398;11.762;2023-07-29T09:06:51;23.50;99.90
12481;DHT22;6305;48.398;11.762;2023-07-29T09:09:18;23.70;99.90
12481;DHT22;6305;48.398;11.762;2023-07-29T09:11:45;23.80;99.90
12481;DHT22;6305;48.398;11.762;2023-07-29T09:14:12;23.90;99.90
12481;DHT22;6305;48.398;11.762;2023-07-29T09:16:40;25.10;99.90
12481;DHT22;6305;48.398;11.762;2023-07-29T09:19:07;26.80;99.90
12481;DHT22;6305;48.398;11.762;2023-07-29T09:21:34;27.60;99.90
12481;DHT22;6305;48.398;11.762;2023-07-29T09:24:07;28.70;99.90
12481;DHT22;6305;48.398;11.762;2023-07-29T09:26:35;30.20;99.90
12481;DHT22;6305;48.398;11.762;2023-07-29T09:29:02;31.70;96.70
12481;DHT22;6305;48.398;11.762;2023-07-29T09:31:29;32.30;82.50
12481;DHT22;6305;48.398;11.762;2023-07-29T09:33:57;32.60;74.50
12481;DHT22;6305;48.398;11.762;2023-07-29T09:36:25;33.50;73.00
12481;DHT22;6305;48.398;11.762;2023-07-29T09:38:54;34.00;68.30
12481;DHT22;6305;48.398;11.762;2023-07-29T09:41:26;34.00;62.90
12481;DHT22;6305;48.398;11.762;2023-07-29T09:43:56;34.50;64.70
12481;DHT22;6305;48.398;11.762;2023-07-29T09:46:25;33.90;58.80
12481;DHT22;6305;48.398;11.762;2023-07-29T09:48:53;32.60;60.10
12481;DHT22;6305;48.398;11.762;2023-07-29T09:51:22;31.60;65.10
12481;DHT22;6305;48.398;11.762;2023-07-29T09:53:50;32.20;71.30
12481;DHT22;6305;48.398;11.762;2023-07-29T09:56:18;32.30;65.90
12481;DHT22;6305;48.398;11.762;2023-07-29T09:58:51;31.90;64.80
12481;DHT22;6305;48.398;11.762;2023-07-29T10:01:19;31.20;66.40
12481;DHT22;6305;48.398;11.762;2023-07-29T10:03:46;30.60;69.30
12481;DHT22;6305;48.398;11.762;2023-07-29T10:06:14;30.30;71.40
12481;DHT22;6305;48.398;11.762;2023-07-29T10:08:42;30.20;75.20
12481;DHT22;6305;48.398;11.762;2023-07-29T10:11:11;30.00;76.70
12481;DHT22;6305;48.398;11.762;2023-07-29T10:13:38;29.70;74.70
12481;DHT22;6305;48.398;11.762;2023-07-29T10:16:07;29.70;75.70
12481;DHT22;6305;48.398;11.762;2023-07-29T10:18:35;30.10;77.50
12481;DHT22;6305;48.398;11.762;2023-07-29T10:21:02;30.80;75.00
12481;DHT22;6305;48.398;11.762;2023-07-29T10:23:34;31.60;72.10
12481;DHT22;6305;48.398;11.762;2023-07-29T10:26:03;32.40;65.30
12481;DHT22;6305;48.398;11.762;2023-07-29T10:28:32;32.60;61.20
12481;DHT22;6305;48.398;11.762;2023-07-29T10:31:00;32.10;59.80
12481;DHT22;6305;48.398;11.762;2023-07-29T10:33:30;31.50;61.80
12481;DHT22;6305;48.398;11.762;2023-07-29T10:35:58;31.30;66.30
12481;DHT22;6305;48.398;11.762;2023-07-29T10:38:26;32.50;62.10
12481;DHT22;6305;48.398;11.762;2023-07-29T10:40:55;33.90;59.20
12481;DHT22;6305;48.398;11.762;2023-07-29T10:43:25;34.40;54.90
12481;DHT22;6305;48.398;11.762;2023-07-29T10:45:53;34.30;53.80
12481;DHT22;6305;48.398;11.762;2023-07-29T10:48:41;33.40;55.10
12481;DHT22;6305;48.398;11.762;2023-07-29T10:51:26;30.90;62.30
12481;DHT22;6305;48.398;11.762;2023-07-29T10:53:56;27.10;79.20
12481;DHT22;6305;48.398;11.762;2023-07-29T10:56:27;24.70;99.10
12481;DHT22;6305;48.398;11.762;2023-07-29T10:58:56;23.40;99.90
12481;DHT22;6305;48.398;11.762;2023-07-29T11:01:27;22.40;99.90
12481;DHT22;6305;48.398;11.762;2023-07-29T11:04:27;21.20;99.90
12481;DHT22;6305;48.398;11.762;2023-07-29T11:07:20;20.00;99.90
12481;DHT22;6305;48.398;11.762;2023-07-29T11:09:54;18.90;99.90
12481;DHT22;6305;48.398;11.762;2023-07-29T11:12:43;18.20;99.90
12481;DHT22;6305;48.398;11.762;2023-07-29T11:15:19;17.70;99.90
12481;DHT22;6305;48.398;11.762;2023-07-29T11:17:48;17.30;99.90
12481;DHT22;6305;48.398;11.762;2023-07-29T11:20:18;17.00;99.90
12481;DHT22;6305;48.398;11.762;2023-07-29T11:22:45;16.70;99.90
12481;DHT22;6305;48.398;11.762;2023-07-29T11:25:13;16.70;99.90
12481;DHT22;6305;48.398;11.762;2023-07-29T11:27:41;16.80;99.90
12481;DHT22;6305;48.398;11.762;2023-07-29T11:30:10;17.20;99.90
12481;DHT22;6305;48.398;11.762;2023-07-29T11:32:39;17.60;99.90
12481;DHT22;6305;48.398;11.762;2023-07-29T11:35:07;18.10;99.90
12481;DHT22;6305;48.398;11.762;2023-07-29T11:37:38;18.60;99.90
12481;DHT22;6305;48.398;11.762;2023-07-29T11:40:06;18.80;99.90
12481;DHT22;6305;48.398;11.762;2023-07-29T11:42:38;19.00;99.90
12481;DHT22;6305;48.398;11.762;2023-07-29T11:45:06;19.30;99.90
12481;DHT22;6305;48.398;11.762;2023-07-29T11:47:34;19.70;99.90
12481;DHT22;6305;48.398;11.762;2023-07-29T11:50:03;20.00;99.90
12481;DHT22;6305;48.398;11.762;2023-07-29T11:52:31;20.30;99.90
12481;DHT22;6305;48.398;11.762;2023-07-29T11:55:00;21.10;99.90
12481;DHT22;6305;48.398;11.762;2023-07-29T11:57:28;22.80;99.90
12481;DHT22;6305;48.398;11.762;2023-07-29T11:59:56;23.40;99.90
12481;DHT22;6305;48.398;11.762;2023-07-29T12:02:24;24.30;99.90
12481;DHT22;6305;48.398;11.762;2023-07-29T12:04:52;25.40;99.90
12481;DHT22;6305;48.398;11.762;2023-07-29T12:07:19;26.50;99.90
12481;DHT22;6305;48.398;11.762;2023-07-29T12:09:46;27.80;99.90
12481;DHT22;6305;48.398;11.762;2023-07-29T12:12:15;28.80;99.90
12481;DHT22;6305;48.398;11.762;2023-07-29T12:14:44;30.10;99.90
12481;DHT22;6305;48.398;11.762;2023-07-29T12:17:13;31.20;99.90
12481;DHT22;6305;48.398;11.762;2023-07-29T12:19:40;32.20;99.90
12481;DHT22;6305;48.398;11.762;2023-07-29T12:22:09;33.00;97.40
12481;DHT22;6305;48.398;11.762;2023-07-29T12:24:38;33.10;91.00
12481;DHT22;6305;48.398;11.762;2023-07-29T12:27:09;32.30;81.70
12481;DHT22;6305;48.398;11.762;2023-07-29T12:29:41;31.20;91.10
12481;DHT22;6305;48.398;11.762;2023-07-29T12:32:09;30.90;97.50
12481;DHT22;6305;48.398;11.762;2023-07-29T12:34:38;31.30;96.70
12481;DHT22;6305;48.398;11.762;2023-07-29T12:37:06;31.90;94.50
12481;DHT22;6305;48.398;11.762;2023-07-29T12:39:35;32.80;90.80
12481;DHT22;6305;48.398;11.762;2023-07-29T12:42:03;33.80;76.90
12481;DHT22;6305;48.398;11.762;2023-07-29T12:44:31;34.20;72.60
12481;DHT22;6305;48.398;11.762;2023-07-29T12:47:01;33.80;64.80
12481;DHT22;6305;48.398;11.762;2023-07-29T12:49:29;32.40;66.00
12481;DHT22;6305;48.398;11.762;2023-07-29T12:51:56;31.20;71.50
12481;DHT22;6305;48.398;11.762;2023-07-29T12:54:23;30.30;82.30
12481;DHT22;6305;48.398;11.762;2023-07-29T12:56:50;29.50;91.40
12481;DHT22;6305;48.398;11.762;2023-07-29T12:59:17;29.00;95.00
12481;DHT22;6305;48.398;11.762;2023-07-29T13:01:45;28.60;96.80
12481;DHT22;6305;48.398;11.762;2023-07-29T13:04:13;28.20;99.70
12481;DHT22;6305;48.398;11.762;2023-07-29T13:06:40;28.60;99.90
12481;DHT22;6305;48.398;11.762;2023-07-29T13:09:07;30.30;99.90
12481;DHT22;6305;48.398;11.762;2023-07-29T13:11:34;31.30;94.50
12481;DHT22;6305;48.398;11.762;2023-07-29T13:14:01;31.60;88.20
12481;DHT22;6305;48.398;11.762;2023-07-29T13:16:29;32.50;90.90
12481;DHT22;6305;48.398;11.762;2023-07-29T13:18:56;33.40;81.00
12481;DHT22;6305;48.398;11.762;2023-07-29T13:21:24;34.60;76.60
12481;DHT22;6305;48.398;11.762;2023-07-29T13:23:52;35.20;58.90
12481;DHT22;6305;48.398;11.762;2023-07-29T13:26:19;33.50;57.20
12481;DHT22;6305;48.398;11.762;2023-07-29T13:28:46;31.80;60.60
12481;DHT22;6305;48.398;11.762;2023-07-29T13:31:13;30.30;68.70
12481;DHT22;6305;48.398;11.762;2023-07-29T13:33:40;29.10;78.60
12481;DHT22;6305;48.398;11.762;2023-07-29T13:36:07;28.30;90.40
12481;DHT22;6305;48.398;11.762;2023-07-29T13:38:36;27.70;93.80
12481;DHT22;6305;48.398;11.762;2023-07-29T13:41:03;27.50;97.60
12481;DHT22;6305;48.398;11.762;2023-07-29T13:43:30;27.70;99.90
12481;DHT22;6305;48.398;11.762;2023-07-29T13:45:57;28.10;99.90
12481;DHT22;6305;48.398;11.762;2023-07-29T13:48:23;28.50;98.50
12481;DHT22;6305;48.398;11.762;2023-07-29T13:50:50;28.50;95.40
12481;DHT22;6305;48.398;11.762;2023-07-29T13:53:18;28.40;93.90
12481;DHT22;6305;48.398;11.762;2023-07-29T13:55:46;28.20;95.70
12481;DHT22;6305;48.398;11.762;2023-07-29T13:58:13;28.10;96.50
12481;DHT22;6305;48.398;11.762;2023-07-29T14:00:40;28.00;97.60
12481;DHT22;6305;48.398;11.762;2023-07-29T14:03:07;28.10;97.60
12481;DHT22;6305;48.398;11.762;2023-07-29T14:05:34;28.90;99.90
12481;DHT22;6305;48.398;11.762;2023-07-29T14:08:01;29.90;95.60
12481;DHT22;6305;48.398;11.762;2023-07-29T14:10:28;30.30;91.10
12481;DHT22;6305;48.398;11.762;2023-07-29T14:12:57;30.60;81.80
12481;DHT22;6305;48.398;11.762;2023-07-29T14:15:24;31.00;84.20
12481;DHT22;6305;48.398;11.762;2023-07-29T14:17:51;31.30;76.70
12481;DHT22;6305;48.398;11.762;2023-07-29T14:20:18;31.40;71.60
12481;DHT22;6305;48.398;11.762;2023-07-29T14:22:45;31.10;69.80
12481;DHT22;6305;48.398;11.762;2023-07-29T14:25:12;30.50;72.00
12481;DHT22;6305;48.398;11.762;2023-07-29T14:27:41;29.30;71.60
12481;DHT22;6305;48.398;11.762;2023-07-29T14:30:10;27.60;79.30
12481;DHT22;6305;48.398;11.762;2023-07-29T14:32:37;26.40;90.40
12481;DHT22;6305;48.398;11.762;2023-07-29T14:35:04;25.60;96.20
12481;DHT22;6305;48.398;11.762;2023-07-29T14:37:31;24.90;99.90
12481;DHT22;6305;48.398;11.762;2023-07-29T14:39:59;24.30;99.90
12481;DHT22;6305;48.398;11.762;2023-07-29T14:42:26;24.30;99.90
12481;DHT22;6305;48.398;11.762;2023-07-29T14:44:54;24.70;99.90
12481;DHT22;6305;48.398;11.762;2023-07-29T14:47:22;25.00;99.90
12481;DHT22;6305;48.398;11.762;2023-07-29T14:49:49;25.30;99.90
12481;DHT22;6305;48.398;11.762;2023-07-29T14:52:16;25.40;99.90
12481;DHT22;6305;48.398;11.762;2023-07-29T14:54:43;25.10;99.90
12481;DHT22;6305;48.398;11.762;2023-07-29T14:57:10;24.70;99.90
12481;DHT22;6305;48.398;11.762;2023-07-29T14:59:37;24.30;99.90
12481;DHT22;6305;48.398;11.762;2023-07-29T15:02:05;23.80;99.90
12481;DHT22;6305;48.398;11.762;2023-07-29T15:04:34;23.40;99.90
12481;DHT22;6305;48.398;11.762;2023-07-29T15:07:02;23.00;99.90
12481;DHT22;6305;48.398;11.762;2023-07-29T15:09:29;22.80;99.90
12481;DHT22;6305;48.398;11.762;2023-07-29T15:11:56;22.50;99.90
12481;DHT22;6305;48.398;11.762;2023-07-29T15:14:23;22.20;99.90
12481;DHT22;6305;48.398;11.762;2023-07-29T15:16:50;22.00;99.90
12481;DHT22;6305;48.398;11.762;2023-07-29T15:19:17;21.80;99.90
12481;DHT22;6305;48.398;11.762;2023-07-29T15:21:45;21.60;99.90
12481;DHT22;6305;48.398;11.762;2023-07-29T15:24:13;21.20;99.90
12481;DHT22;6305;48.398;11.762;2023-07-29T15:26:40;20.60;99.90
12481;DHT22;6305;48.398;11.762;2023-07-29T15:29:07;20.00;99.90
12481;DHT22;6305;48.398;11.762;2023-07-29T15:31:34;19.50;99.90
12481;DHT22;6305;48.398;11.762;2023-07-29T15:34:02;19.20;99.90
12481;DHT22;6305;48.398;11.762;2023-07-29T15:36:29;19.00;99.90